sensor_id;sensor_type;location;lat;lon;timestamp;temperature;humidity
4406;DHT22;2216;53.806;11.598;2023-08-20T00:01:57;22.20;64.40
4406;DHT22;2216;53.806;11.598;2023-08-20T00:04:26;22.20;64.40
4406;DHT22;2216;53.806;11.598;2023-08-20T00:06:52;22.20;64.40
4406;DHT22;2216;53.806;11.598;2023-08-20T00:09:18;22.20;64.50
4406;DHT22;2216;53.806;11.598;2023-08-20T00:11:44;22.10;64.40
4406;DHT22;2216;53.806;11.598;2023-08-20T00:14:16;22.10;64.40
4406;DHT22;2216;53.806;11.598;2023-08-20T00:16:43;22.10;64.50
4406;DHT22;2216;53.806;11.598;2023-08-20T00:19:10;22.10;64.60
4406;DHT22;2216;53.806;11.598;2023-08-20T00:21:42;22.00;64.50
4406;DHT22;2216;53.806;11.598;2023-08-20T00:24:10;22.00;64.50
4406;DHT22;2216;53.806;11.598;2023-08-20T00:26:36;22.00;64.50
4406;DHT22;2216;53.806;11.598;2023-08-20T00:29:02;22.00;64.60
4406;DHT22;2216;53.806;11.598;2023-08-20T00:31:28;21.90;64.60
4406;DHT22;2216;53.806;11.598;2023-08-20T00:33:54;22.00;64.80
4406;DHT22;2216;53.806;11.598;2023-08-20T00:36:20;21.90;64.60
4406;DHT22;2216;53.806;11.598;2023-08-20T00:38:46;21.90;64.70
4406;DHT22;2216;53.806;11.598;2023-08-20T00:41:11;21.90;64.70
4406;DHT22;2216;53.806;11.598;2023-08-20T00:43:37;21.90;64.70
4406;DHT22;2216;53.806;11.598;2023-08-20T00:46:03;21.90;64.70
4406;DHT22;2216;53.806;11.598;2023-08-20T00:48:29;22.00;64.80
4406;DHT22;2216;53.806;11.598;2023-08-20T00:50:55;21.90;64.80
4406;DHT22;2216;53.806;11.598;2023-08-20T00:53:20;21.90;64.80
4406;DHT22;2216;53.806;11.598;2023-08-20T00:55:46;21.90;64.80
4406;DHT22;2216;53.806;11.598;2023-08-20T00:58:12;21.90;64.80
4406;DHT22;2216;53.806;11.598;2023-08-20T01:00:38;21.90;64.90
4406;DHT22;2216;53.806;11.598;2023-08-20T01:03:04;21.70;64.80
4406;DHT22;2216;53.806;11.598;2023-08-20T01:05:33;21.90;64.90
4406;DHT22;2216;53.806;11.598;2023-08-20T01:08:27;21.90;65.00
4406;DHT22;2216;53.806;11.598;2023-08-20T01:11:22;21.90;65.00
4406;DHT22;2216;53.806;11.598;2023-08-20T01:13:54;21.90;65.00
4406;DHT22;2216;53.806;11.598;2023-08-20T01:16:20;21.90;65.10
4406;DHT22;2216;53.806;11.598;2023-08-20T01:18:47;21.90;65.10
4406;DHT22;2216;53.806;11.598;2023-08-20T01:24:38;21.80;65.10
4406;DHT22;2216;53.806;11.598;2023-08-20T01:27:51;21.90;65.10
4406;DHT22;2216;53.806;11.598;2023-08-20T01:30:21;21.90;65.20
4406;DHT22;2216;53.806;11.598;2023-08-20T01:32:49;21.80;65.10
4406;DHT22;2216;53.806;11.598;2023-08-20T01:35:17;21.80;65.20
4406;DHT22;2216;53.806;11.598;2023-08-20T01:37:43;21.80;65.10
4406;DHT22;2216;53.806;11.598;2023-08-20T01:40:09;21.80;65.10
4406;DHT22;2216;53.806;11.598;2023-08-20T01:42:37;21.80;65.10
4406;DHT22;2216;53.806;11.598;2023-08-20T01:45:04;21.70;65.00
4406;DHT22;2216;53.806;11.598;2023-08-20T01:47:31;21.70;65.10
4406;DHT22;2216;53.806;11.598;2023-08-20T01:49:57;21.70;65.10
4406;DHT22;2216;53.806;11.598;2023-08-20T01:52:24;21.70;65.10
4406;DHT22;2216;53.806;11.598;2023-08-20T01:54:50;21.70;65.10
4406;DHT22;2216;53.806;11.598;2023-08-20T01:57:16;21.40;65.20
4406;DHT22;2216;53.806;11.598;2023-08-20T01:59:42;21.60;65.20
4406;DHT22;2216;53.806;11.598;2023-08-20T02:02:08;21.60;65.20
4406;DHT22;2216;53.806;11.598;2023-08-20T02:04:33;21.50;65.10
4406;DHT22;2216;53.806;11.598;2023-08-20T02:06:59;21.50;65.10
4406;DHT22;2216;53.806;11.598;2023-08-20T02:09:25;21.50;65.10
4406;DHT22;2216;53.806;11.598;2023-08-20T02:11:51;21.50;65.20
4406;DHT22;2216;53.806;11.598;2023-08-20T02:14:17;21.40;65.10
4406;DHT22;2216;53.806;11.598;2023-08-20T02:16:43;21.30;65.30
4406;DHT22;2216;53.806;11.598;2023-08-20T02:19:09;21.30;65.10
4406;DHT22;2216;53.806;11.598;2023-08-20T02:21:35;21.20;65.20
4406;DHT22;2216;53.806;11.598;2023-08-20T02:24:01;21.20;65.10
4406;DHT22;2216;53.806;11.598;2023-08-20T02:26:27;21.20;65.10
4406;DHT22;2216;53.806;11.598;2023-08-20T02:28:52;21.10;65.10
4406;DHT22;2216;53.806;11.598;2023-08-20T02:31:18;21.00;65.00
4406;DHT22;2216;53.806;11.598;2023-08-20T02:33:44;21.00;65.10
4406;DHT22;2216;53.806;11.598;2023-08-20T02:36:09;20.90;65.00
4406;DHT22;2216;53.806;11.598;2023-08-20T02:38:35;20.90;65.00
4406;DHT22;2216;53.806;11.598;2023-08-20T02:41:01;20.80;65.00
4406;DHT22;2216;53.806;11.598;2023-08-20T02:43:30;20.70;65.10
4406;DHT22;2216;53.806;11.598;2023-08-20T02:45:56;20.60;65.20
4406;DHT22;2216;53.806;11.598;2023-08-20T02:48:22;20.60;65.30
4406;DHT22;2216;53.806;11.598;2023-08-20T02:50:53;20.50;65.20
4406;DHT22;2216;53.806;11.598;2023-08-20T02:53:19;20.50;65.30
4406;DHT22;2216;53.806;11.598;2023-08-20T02:55:45;20.50;65.50
4406;DHT22;2216;53.806;11.598;2023-08-20T02:58:11;20.40;65.40
4406;DHT22;2216;53.806;11.598;2023-08-20T03:00:37;20.40;66.10
4406;DHT22;2216;53.806;11.598;2023-08-20T03:03:03;20.40;65.50
4406;DHT22;2216;53.806;11.598;2023-08-20T03:05:33;20.40;65.40
4406;DHT22;2216;53.806;11.598;2023-08-20T03:07:58;20.30;65.40
4406;DHT22;2216;53.806;11.598;2023-08-20T03:10:25;20.10;65.30
4406;DHT22;2216;53.806;11.598;2023-08-20T03:12:52;20.40;65.60
4406;DHT22;2216;53.806;11.598;2023-08-20T03:15:17;20.20;65.50
4406;DHT22;2216;53.806;11.598;2023-08-20T03:17:43;20.20;65.60
4406;DHT22;2216;53.806;11.598;2023-08-20T03:20:09;20.10;65.60
4406;DHT22;2216;53.806;11.598;2023-08-20T03:22:36;20.10;65.60
4406;DHT22;2216;53.806;11.598;2023-08-20T03:25:03;20.10;65.60
4406;DHT22;2216;53.806;11.598;2023-08-20T03:27:29;20.10;65.50
4406;DHT22;2216;53.806;11.598;2023-08-20T03:29:55;20.00;65.50
4406;DHT22;2216;53.806;11.598;2023-08-20T03:32:20;20.00;65.50
4406;DHT22;2216;53.806;11.598;2023-08-20T03:34:46;20.00;65.50
4406;DHT22;2216;53.806;11.598;2023-08-20T03:37:12;20.00;65.50
4406;DHT22;2216;53.806;11.598;2023-08-20T03:39:37;19.90;65.50
4406;DHT22;2216;53.806;11.598;2023-08-20T03:42:03;19.90;65.50
4406;DHT22;2216;53.806;11.598;2023-08-20T03:44:30;19.80;65.50
4406;DHT22;2216;53.806;11.598;2023-08-20T03:46:56;19.80;65.40
4406;DHT22;2216;53.806;11.598;2023-08-20T03:49:22;19.80;65.50
4406;DHT22;2216;53.806;11.598;2023-08-20T03:51:47;19.80;65.50
4406;DHT22;2216;53.806;11.598;2023-08-20T03:54:13;19.70;65.50
4406;DHT22;2216;53.806;11.598;2023-08-20T03:56:39;19.70;65.50
4406;DHT22;2216;53.806;11.598;2023-08-20T03:59:05;19.60;65.50
4406;DHT22;2216;53.806;11.598;2023-08-20T04:01:30;19.70;65.70
4406;DHT22;2216;53.806;11.598;2023-08-20T04:03:56;19.60;65.70
4406;DHT22;2216;53.806;11.598;2023-08-20T04:06:22;19.60;65.60
4406;DHT22;2216;53.806;11.598;2023-08-20T04:08:47;19.60;65.70
4406;DHT22;2216;53.806;11.598;2023-08-20T04:11:14;19.60;65.80
4406;DHT22;2216;53.806;11.598;2023-08-20T04:13:39;19.60;65.80
4406;DHT22;2216;53.806;11.598;2023-08-20T04:16:08;19.60;65.80
4406;DHT22;2216;53.806;11.598;2023-08-20T04:18:33;19.60;65.90
4406;DHT22;2216;53.806;11.598;2023-08-20T04:20:59;19.60;65.90
4406;DHT22;2216;53.806;11.598;2023-08-20T04:23:25;19.60;66.00
4406;DHT22;2216;53.806;11.598;2023-08-20T04:25:50;19.60;66.00
4406;DHT22;2216;53.806;11.598;2023-08-20T04:28:16;19.60;65.90
4406;DHT22;2216;53.806;11.598;2023-08-20T04:30:42;19.60;66.00
4406;DHT22;2216;53.806;11.598;2023-08-20T04:33:09;19.60;66.00
4406;DHT22;2216;53.806;11.598;2023-08-20T04:35:34;19.60;66.00
4406;DHT22;2216;53.806;11.598;2023-08-20T04:38:01;19.60;66.00
4406;DHT22;2216;53.806;11.598;2023-08-20T04:40:27;19.50;65.90
4406;DHT22;2216;53.806;11.598;2023-08-20T04:42:52;19.50;65.90
4406;DHT22;2216;53.806;11.598;2023-08-20T04:45:18;19.50;65.90
4406;DHT22;2216;53.806;11.598;2023-08-20T04:47:45;19.50;66.00
4406;DHT22;2216;53.806;11.598;2023-08-20T04:50:11;19.50;66.10
4406;DHT22;2216;53.806;11.598;2023-08-20T04:52:39;19.50;66.00
4406;DHT22;2216;53.806;11.598;2023-08-20T04:55:05;19.50;66.00
4406;DHT22;2216;53.806;11.598;2023-08-20T04:57:34;19.50;66.00
4406;DHT22;2216;53.806;11.598;2023-08-20T05:00:00;19.50;66.00
4406;DHT22;2216;53.806;11.598;2023-08-20T05:02:26;19.40;66.10
4406;DHT22;2216;53.806;11.598;2023-08-20T05:04:52;19.40;66.10
4406;DHT22;2216;53.806;11.598;2023-08-20T05:07:17;19.40;66.00
4406;DHT22;2216;53.806;11.598;2023-08-20T05:09:43;19.50;66.10
4406;DHT22;2216;53.806;11.598;2023-08-20T05:12:09;19.40;66.10
4406;DHT22;2216;53.806;11.598;2023-08-20T05:14:35;19.40;66.10
4406;DHT22;2216;53.806;11.598;2023-08-20T05:17:00;19.40;66.10
4406;DHT22;2216;53.806;11.598;2023-08-20T05:19:26;19.40;66.10
4406;DHT22;2216;53.806;11.598;2023-08-20T05:21:52;19.40;66.10
4406;DHT22;2216;53.806;11.598;2023-08-20T05:24:21;19.40;66.20
4406;DHT22;2216;53.806;11.598;2023-08-20T05:27:03;19.40;66.20
4406;DHT22;2216;53.806;11.598;2023-08-20T05:29:35;19.40;66.20
4406;DHT22;2216;53.806;11.598;2023-08-20T05:32:02;19.40;66.30
4406;DHT22;2216;53.806;11.598;2023-08-20T05:34:28;19.40;66.30
4406;DHT22;2216;53.806;11.598;2023-08-20T05:36:53;19.40;66.50
4406;DHT22;2216;53.806;11.598;2023-08-20T05:39:19;19.40;66.30
4406;DHT22;2216;53.806;11.598;2023-08-20T05:41:45;19.40;66.50
4406;DHT22;2216;53.806;11.598;2023-08-20T05:44:10;19.40;66.50
4406;DHT22;2216;53.806;11.598;2023-08-20T05:46:36;19.40;66.40
4406;DHT22;2216;53.806;11.598;2023-08-20T05:49:02;19.40;66.70
4406;DHT22;2216;53.806;11.598;2023-08-20T05:51:28;19.40;66.40
4406;DHT22;2216;53.806;11.598;2023-08-20T05:53:53;19.40;66.30
4406;DHT22;2216;53.806;11.598;2023-08-20T05:56:19;19.40;66.40
4406;DHT22;2216;53.806;11.598;2023-08-20T05:58:45;19.40;66.70
4406;DHT22;2216;53.806;11.598;2023-08-20T06:01:11;19.50;67.00
4406;DHT22;2216;53.806;11.598;2023-08-20T06:03:36;19.60;67.30
4406;DHT22;2216;53.806;11.598;2023-08-20T06:06:02;19.80;67.60
4406;DHT22;2216;53.806;11.598;2023-08-20T06:08:28;19.90;67.50
4406;DHT22;2216;53.806;11.598;2023-08-20T06:10:53;20.00;67.30
4406;DHT22;2216;53.806;11.598;2023-08-20T06:13:19;20.10;67.10
4406;DHT22;2216;53.806;11.598;2023-08-20T06:15:45;20.20;66.90
4406;DHT22;2216;53.806;11.598;2023-08-20T06:18:10;20.20;66.70
4406;DHT22;2216;53.806;11.598;2023-08-20T06:20:36;20.30;66.70
4406;DHT22;2216;53.806;11.598;2023-08-20T06:23:02;20.30;66.50
4406;DHT22;2216;53.806;11.598;2023-08-20T06:25:28;20.30;66.40
4406;DHT22;2216;53.806;11.598;2023-08-20T06:27:53;20.30;66.40
4406;DHT22;2216;53.806;11.598;2023-08-20T06:30:19;20.30;66.50
4406;DHT22;2216;53.806;11.598;2023-08-20T06:32:45;20.40;66.50
4406;DHT22;2216;53.806;11.598;2023-08-20T06:35:10;20.40;66.50
4406;DHT22;2216;53.806;11.598;2023-08-20T06:37:38;20.50;66.70
4406;DHT22;2216;53.806;11.598;2023-08-20T06:40:05;20.60;66.70
4406;DHT22;2216;53.806;11.598;2023-08-20T06:42:31;20.60;66.90
4406;DHT22;2216;53.806;11.598;2023-08-20T06:44:57;20.70;67.10
4406;DHT22;2216;53.806;11.598;2023-08-20T06:47:22;20.90;67.20
4406;DHT22;2216;53.806;11.598;2023-08-20T06:49:50;21.00;67.10
4406;DHT22;2216;53.806;11.598;2023-08-20T06:52:15;21.00;67.20
4406;DHT22;2216;53.806;11.598;2023-08-20T06:54:42;21.30;67.30
4406;DHT22;2216;53.806;11.598;2023-08-20T06:57:08;21.40;68.10
4406;DHT22;2216;53.806;11.598;2023-08-20T06:59:33;21.60;67.50
4406;DHT22;2216;53.806;11.598;2023-08-20T07:01:59;21.80;67.40
4406;DHT22;2216;53.806;11.598;2023-08-20T07:04:25;21.90;67.30
4406;DHT22;2216;53.806;11.598;2023-08-20T07:06:51;22.10;67.30
4406;DHT22;2216;53.806;11.598;2023-08-20T07:09:17;22.20;67.30
4406;DHT22;2216;53.806;11.598;2023-08-20T07:11:42;22.40;67.30
4406;DHT22;2216;53.806;11.598;2023-08-20T07:14:08;22.60;67.30
4406;DHT22;2216;53.806;11.598;2023-08-20T07:16:34;22.80;67.50
4406;DHT22;2216;53.806;11.598;2023-08-20T07:18:59;23.00;67.30
4406;DHT22;2216;53.806;11.598;2023-08-20T07:21:25;23.10;66.90
4406;DHT22;2216;53.806;11.598;2023-08-20T07:23:51;23.20;66.40
4406;DHT22;2216;53.806;11.598;2023-08-20T07:26:16;23.20;66.20
4406;DHT22;2216;53.806;11.598;2023-08-20T07:28:42;23.30;66.40
4406;DHT22;2216;53.806;11.598;2023-08-20T07:31:34;23.40;66.30
4406;DHT22;2216;53.806;11.598;2023-08-20T07:34:01;23.50;65.90
4406;DHT22;2216;53.806;11.598;2023-08-20T07:36:28;23.40;65.60
4406;DHT22;2216;53.806;11.598;2023-08-20T07:38:54;23.50;66.00
4406;DHT22;2216;53.806;11.598;2023-08-20T07:41:20;23.50;66.10
4406;DHT22;2216;53.806;11.598;2023-08-20T07:43:47;23.60;65.80
4406;DHT22;2216;53.806;11.598;2023-08-20T07:46:14;23.70;65.70
4406;DHT22;2216;53.806;11.598;2023-08-20T07:48:40;23.70;65.80
4406;DHT22;2216;53.806;11.598;2023-08-20T07:51:05;23.70;65.60
4406;DHT22;2216;53.806;11.598;2023-08-20T07:53:32;23.70;65.50
4406;DHT22;2216;53.806;11.598;2023-08-20T07:55:59;23.80;65.50
4406;DHT22;2216;53.806;11.598;2023-08-20T07:58:25;23.80;66.00
4406;DHT22;2216;53.806;11.598;2023-08-20T08:00:51;23.70;65.20
4406;DHT22;2216;53.806;11.598;2023-08-20T08:03:17;23.70;65.40
4406;DHT22;2216;53.806;11.598;2023-08-20T08:05:47;23.80;65.70
4406;DHT22;2216;53.806;11.598;2023-08-20T08:08:14;23.90;65.70
4406;DHT22;2216;53.806;11.598;2023-08-20T08:10:43;23.90;65.50
4406;DHT22;2216;53.806;11.598;2023-08-20T08:13:11;23.70;65.10
4406;DHT22;2216;53.806;11.598;2023-08-20T08:15:37;23.90;65.10
4406;DHT22;2216;53.806;11.598;2023-08-20T08:18:04;23.80;65.20
4406;DHT22;2216;53.806;11.598;2023-08-20T08:20:29;23.90;65.40
4406;DHT22;2216;53.806;11.598;2023-08-20T08:22:55;23.80;65.20
4406;DHT22;2216;53.806;11.598;2023-08-20T08:25:21;23.90;65.20
4406;DHT22;2216;53.806;11.598;2023-08-20T08:27:46;23.80;65.00
4406;DHT22;2216;53.806;11.598;2023-08-20T08:30:12;23.80;64.80
4406;DHT22;2216;53.806;11.598;2023-08-20T08:32:38;23.70;65.00
4406;DHT22;2216;53.806;11.598;2023-08-20T08:35:04;23.70;65.00
4406;DHT22;2216;53.806;11.598;2023-08-20T08:37:30;23.70;65.20
4406;DHT22;2216;53.806;11.598;2023-08-20T08:39:55;23.80;65.70
4406;DHT22;2216;53.806;11.598;2023-08-20T08:42:22;23.90;66.00
4406;DHT22;2216;53.806;11.598;2023-08-20T08:44:50;24.00;66.30
4406;DHT22;2216;53.806;11.598;2023-08-20T08:47:21;24.10;66.30
4406;DHT22;2216;53.806;11.598;2023-08-20T08:49:48;24.30;66.30
4406;DHT22;2216;53.806;11.598;2023-08-20T08:52:14;24.50;66.00
4406;DHT22;2216;53.806;11.598;2023-08-20T08:54:40;24.50;66.10
4406;DHT22;2216;53.806;11.598;2023-08-20T08:57:06;24.70;66.30
4406;DHT22;2216;53.806;11.598;2023-08-20T08:59:32;24.90;66.40
4406;DHT22;2216;53.806;11.598;2023-08-20T09:01:58;25.10;66.40
4406;DHT22;2216;53.806;11.598;2023-08-20T09:04:23;25.30;66.40
4406;DHT22;2216;53.806;11.598;2023-08-20T09:06:55;25.50;65.80
4406;DHT22;2216;53.806;11.598;2023-08-20T09:09:21;25.70;65.80
4406;DHT22;2216;53.806;11.598;2023-08-20T09:11:48;25.80;65.40
4406;DHT22;2216;53.806;11.598;2023-08-20T09:14:45;26.00;65.60
4406;DHT22;2216;53.806;11.598;2023-08-20T09:17:15;26.00;65.40
4406;DHT22;2216;53.806;11.598;2023-08-20T09:19:43;26.10;65.60
4406;DHT22;2216;53.806;11.598;2023-08-20T09:22:14;26.30;65.60
4406;DHT22;2216;53.806;11.598;2023-08-20T09:24:42;26.40;65.60
4406;DHT22;2216;53.806;11.598;2023-08-20T09:27:11;26.50;65.30
4406;DHT22;2216;53.806;11.598;2023-08-20T09:29:48;26.60;65.00
4406;DHT22;2216;53.806;11.598;2023-08-20T09:32:23;26.60;64.60
4406;DHT22;2216;53.806;11.598;2023-08-20T09:34:51;26.60;64.10
4406;DHT22;2216;53.806;11.598;2023-08-20T09:37:22;26.60;64.30
4406;DHT22;2216;53.806;11.598;2023-08-20T09:39:49;26.60;64.40
4406;DHT22;2216;53.806;11.598;2023-08-20T09:42:15;26.70;64.80
4406;DHT22;2216;53.806;11.598;2023-08-20T09:44:43;26.80;64.80
4406;DHT22;2216;53.806;11.598;2023-08-20T09:47:14;27.00;64.90
4406;DHT22;2216;53.806;11.598;2023-08-20T09:49:42;27.10;64.60
4406;DHT22;2216;53.806;11.598;2023-08-20T09:52:26;27.10;64.50
4406;DHT22;2216;53.806;11.598;2023-08-20T09:55:09;27.10;64.10
4406;DHT22;2216;53.806;11.598;2023-08-20T09:57:40;27.20;64.10
4406;DHT22;2216;53.806;11.598;2023-08-20T10:00:08;27.20;63.90
4406;DHT22;2216;53.806;11.598;2023-08-20T10:02:35;27.30;65.00
4406;DHT22;2216;53.806;11.598;2023-08-20T10:05:03;27.30;64.50
4406;DHT22;2216;53.806;11.598;2023-08-20T10:07:31;27.40;64.70
4406;DHT22;2216;53.806;11.598;2023-08-20T10:10:01;27.50;64.70
4406;DHT22;2216;53.806;11.598;2023-08-20T10:12:30;27.60;64.70
4406;DHT22;2216;53.806;11.598;2023-08-20T10:15:00;27.80;64.40
4406;DHT22;2216;53.806;11.598;2023-08-20T10:17:29;27.90;64.40
4406;DHT22;2216;53.806;11.598;2023-08-20T10:19:57;28.00;64.50
4406;DHT22;2216;53.806;11.598;2023-08-20T10:22:32;28.10;64.40
4406;DHT22;2216;53.806;11.598;2023-08-20T10:24:59;28.20;63.90
4406;DHT22;2216;53.806;11.598;2023-08-20T10:27:31;28.20;63.90
4406;DHT22;2216;53.806;11.598;2023-08-20T10:30:01;28.30;63.90
4406;DHT22;2216;53.806;11.598;2023-08-20T10:32:51;28.40;63.80
4406;DHT22;2216;53.806;11.598;2023-08-20T10:35:26;28.40;62.30
4406;DHT22;2216;53.806;11.598;2023-08-20T10:38:12;28.40;63.20
4406;DHT22;2216;53.806;11.598;2023-08-20T10:40:56;28.40;64.10
4406;DHT22;2216;53.806;11.598;2023-08-20T10:43:39;28.40;63.20
4406;DHT22;2216;53.806;11.598;2023-08-20T10:46:22;28.50;63.10
4406;DHT22;2216;53.806;11.598;2023-08-20T10:48:52;28.40;62.40
4406;DHT22;2216;53.806;11.598;2023-08-20T10:51:33;28.40;62.80
4406;DHT22;2216;53.806;11.598;2023-08-20T10:59:26;28.30;63.20
4406;DHT22;2216;53.806;11.598;2023-08-20T11:01:54;28.40;63.00
4406;DHT22;2216;53.806;11.598;2023-08-20T11:04:23;28.50;63.40
4406;DHT22;2216;53.806;11.598;2023-08-20T11:06:56;28.50;63.20
4406;DHT22;2216;53.806;11.598;2023-08-20T11:09:29;28.60;62.60
4406;DHT22;2216;53.806;11.598;2023-08-20T11:11:56;28.50;62.40
4406;DHT22;2216;53.806;11.598;2023-08-20T11:14:23;28.60;62.70
4406;DHT22;2216;53.806;11.598;2023-08-20T11:16:49;28.60;62.30
4406;DHT22;2216;53.806;11.598;2023-08-20T11:19:21;28.60;62.60
4406;DHT22;2216;53.806;11.598;2023-08-20T11:21:48;28.60;62.30
4406;DHT22;2216;53.806;11.598;2023-08-20T11:24:14;28.60;62.20
4406;DHT22;2216;53.806;11.598;2023-08-20T11:26:41;28.60;61.30
4406;DHT22;2216;53.806;11.598;2023-08-20T11:29:09;28.60;62.40
4406;DHT22;2216;53.806;11.598;2023-08-20T11:31:36;28.60;63.00
4406;DHT22;2216;53.806;11.598;2023-08-20T11:34:03;28.80;63.30
4406;DHT22;2216;53.806;11.598;2023-08-20T11:36:29;28.90;62.90
4406;DHT22;2216;53.806;11.598;2023-08-20T11:38:55;28.90;62.50
4406;DHT22;2216;53.806;11.598;2023-08-20T11:41:22;29.00;62.60
4406;DHT22;2216;53.806;11.598;2023-08-20T11:43:48;29.00;62.80
4406;DHT22;2216;53.806;11.598;2023-08-20T11:46:19;29.10;62.50
4406;DHT22;2216;53.806;11.598;2023-08-20T11:49:27;29.10;62.50
4406;DHT22;2216;53.806;11.598;2023-08-20T11:51:55;29.20;61.90
4406;DHT22;2216;53.806;11.598;2023-08-20T11:54:22;29.20;62.00
4406;DHT22;2216;53.806;11.598;2023-08-20T11:56:50;29.20;62.30
4406;DHT22;2216;53.806;11.598;2023-08-20T11:59:18;29.20;62.60
4406;DHT22;2216;53.806;11.598;2023-08-20T12:02:01;29.30;62.80
4406;DHT22;2216;53.806;11.598;2023-08-20T12:04:31;29.40;62.00
4406;DHT22;2216;53.806;11.598;2023-08-20T12:07:10;29.40;62.60
4406;DHT22;2216;53.806;11.598;2023-08-20T12:09:39;29.50;62.50
4406;DHT22;2216;53.806;11.598;2023-08-20T12:12:07;29.60;62.30
4406;DHT22;2216;53.806;11.598;2023-08-20T12:14:36;29.60;62.40
4406;DHT22;2216;53.806;11.598;2023-08-20T12:17:02;29.60;61.10
4406;DHT22;2216;53.806;11.598;2023-08-20T12:19:31;29.70;63.00
4406;DHT22;2216;53.806;11.598;2023-08-20T12:21:56;29.60;61.40
4406;DHT22;2216;53.806;11.598;2023-08-20T12:24:22;29.70;61.30
4406;DHT22;2216;53.806;11.598;2023-08-20T12:26:48;29.60;60.80
4406;DHT22;2216;53.806;11.598;2023-08-20T12:29:13;29.60;61.70
4406;DHT22;2216;53.806;11.598;2023-08-20T12:31:40;29.60;61.80
4406;DHT22;2216;53.806;11.598;2023-08-20T12:34:06;29.70;62.00
4406;DHT22;2216;53.806;11.598;2023-08-20T12:36:33;29.70;62.30
4406;DHT22;2216;53.806;11.598;2023-08-20T12:38:59;29.80;61.70
4406;DHT22;2216;53.806;11.598;2023-08-20T12:41:24;29.90;62.00
4406;DHT22;2216;53.806;11.598;2023-08-20T12:43:50;30.00;62.20
4406;DHT22;2216;53.806;11.598;2023-08-20T12:46:16;30.10;62.00
4406;DHT22;2216;53.806;11.598;2023-08-20T12:48:42;30.10;61.60
4406;DHT22;2216;53.806;11.598;2023-08-20T12:51:08;30.10;61.00
4406;DHT22;2216;53.806;11.598;2023-08-20T12:53:37;30.00;60.50
4406;DHT22;2216;53.806;11.598;2023-08-20T12:56:03;29.80;59.80
4406;DHT22;2216;53.806;11.598;2023-08-20T12:58:29;29.60;59.70
4406;DHT22;2216;53.806;11.598;2023-08-20T13:00:54;29.50;60.00
4406;DHT22;2216;53.806;11.598;2023-08-20T13:03:20;29.30;60.10
4406;DHT22;2216;53.806;11.598;2023-08-20T13:05:46;29.10;60.20
4406;DHT22;2216;53.806;11.598;2023-08-20T13:08:12;29.10;60.60
4406;DHT22;2216;53.806;11.598;2023-08-20T13:10:40;29.00;60.80
4406;DHT22;2216;53.806;11.598;2023-08-20T13:13:09;29.00;60.90
4406;DHT22;2216;53.806;11.598;2023-08-20T13:15:35;29.00;61.20
4406;DHT22;2216;53.806;11.598;2023-08-20T13:18:02;29.00;61.40
4406;DHT22;2216;53.806;11.598;2023-08-20T13:20:29;29.10;61.50
4406;DHT22;2216;53.806;11.598;2023-08-20T13:22:55;29.10;61.50
4406;DHT22;2216;53.806;11.598;2023-08-20T13:25:21;29.10;61.30
4406;DHT22;2216;53.806;11.598;2023-08-20T13:27:47;29.20;60.90
4406;DHT22;2216;53.806;11.598;2023-08-20T13:30:13;29.10;61.00
4406;DHT22;2216;53.806;11.598;2023-08-20T13:32:39;29.20;61.20
4406;DHT22;2216;53.806;11.598;2023-08-20T13:35:05;29.20;61.10
4406;DHT22;2216;53.806;11.598;2023-08-20T13:37:31;29.20;61.10
4406;DHT22;2216;53.806;11.598;2023-08-20T13:39:58;29.30;61.30
4406;DHT22;2216;53.806;11.598;2023-08-20T13:42:24;29.40;61.40
4406;DHT22;2216;53.806;11.598;2023-08-20T13:44:50;29.50;61.60
4406;DHT22;2216;53.806;11.598;2023-08-20T13:47:15;29.50;61.10
4406;DHT22;2216;53.806;11.598;2023-08-20T13:49:41;29.60;60.70
4406;DHT22;2216;53.806;11.598;2023-08-20T13:52:07;29.50;60.30
4406;DHT22;2216;53.806;11.598;2023-08-20T13:54:34;29.50;60.50
4406;DHT22;2216;53.806;11.598;2023-08-20T13:57:00;29.50;60.30
4406;DHT22;2216;53.806;11.598;2023-08-20T13:59:26;29.40;60.50
4406;DHT22;2216;53.806;11.598;2023-08-20T14:01:51;29.40;60.50
4406;DHT22;2216;53.806;11.598;2023-08-20T14:04:17;29.50;60.60
4406;DHT22;2216;53.806;11.598;2023-08-20T14:06:43;29.40;60.30
4406;DHT22;2216;53.806;11.598;2023-08-20T14:09:08;29.40;60.30
4406;DHT22;2216;53.806;11.598;2023-08-20T14:11:34;29.40;60.50
4406;DHT22;2216;53.806;11.598;2023-08-20T14:14:00;29.40;60.00
4406;DHT22;2216;53.806;11.598;2023-08-20T14:16:25;29.40;60.50
4406;DHT22;2216;53.806;11.598;2023-08-20T14:18:51;29.50;60.80
4406;DHT22;2216;53.806;11.598;2023-08-20T14:21:17;29.50;60.80
4406;DHT22;2216;53.806;11.598;2023-08-20T14:23:42;29.50;59.50
4406;DHT22;2216;53.806;11.598;2023-08-20T14:26:08;29.50;59.80
4406;DHT22;2216;53.806;11.598;2023-08-20T14:28:34;29.50;59.10
4406;DHT22;2216;53.806;11.598;2023-08-20T14:31:03;29.50;59.90
4406;DHT22;2216;53.806;11.598;2023-08-20T14:33:32;29.50;60.10
4406;DHT22;2216;53.806;11.598;2023-08-20T14:35:58;29.50;60.20
4406;DHT22;2216;53.806;11.598;2023-08-20T14:38:23;29.50;60.30
4406;DHT22;2216;53.806;11.598;2023-08-20T14:40:49;29.50;60.40
4406;DHT22;2216;53.806;11.598;2023-08-20T14:43:15;29.50;60.10
4406;DHT22;2216;53.806;11.598;2023-08-20T14:45:40;29.50;60.00
4406;DHT22;2216;53.806;11.598;2023-08-20T14:48:06;29.50;60.00
4406;DHT22;2216;53.806;11.598;2023-08-20T14:50:32;29.50;58.80
4406;DHT22;2216;53.806;11.598;2023-08-20T14:52:58;29.40;59.60
4406;DHT22;2216;53.806;11.598;2023-08-20T14:55:24;29.40;59.80
4406;DHT22;2216;53.806;11.598;2023-08-20T14:57:50;29.40;59.90
4406;DHT22;2216;53.806;11.598;2023-08-20T15:00:16;29.30;59.90
4406;DHT22;2216;53.806;11.598;2023-08-20T15:02:46;29.40;60.00
4406;DHT22;2216;53.806;11.598;2023-08-20T15:05:12;29.30;59.90
4406;DHT22;2216;53.806;11.598;2023-08-20T15:07:38;29.30;59.90
4406;DHT22;2216;53.806;11.598;2023-08-20T15:10:05;29.30;60.00
4406;DHT22;2216;53.806;11.598;2023-08-20T15:12:35;29.30;60.10
4406;DHT22;2216;53.806;11.598;2023-08-20T15:15:04;29.30;60.00
4406;DHT22;2216;53.806;11.598;2023-08-20T15:17:31;29.30;59.80
4406;DHT22;2216;53.806;11.598;2023-08-20T15:19:57;29.20;59.60
4406;DHT22;2216;53.806;11.598;2023-08-20T15:22:23;29.20;59.50
4406;DHT22;2216;53.806;11.598;2023-08-20T15:24:49;29.10;59.60
4406;DHT22;2216;53.806;11.598;2023-08-20T15:27:17;29.10;59.80
4406;DHT22;2216;53.806;11.598;2023-08-20T15:29:43;29.10;60.00
4406;DHT22;2216;53.806;11.598;2023-08-20T15:32:10;28.90;59.70
4406;DHT22;2216;53.806;11.598;2023-08-20T15:34:35;29.00;59.80
4406;DHT22;2216;53.806;11.598;2023-08-20T15:37:01;29.00;59.70
4406;DHT22;2216;53.806;11.598;2023-08-20T15:39:27;29.00;59.60
4406;DHT22;2216;53.806;11.598;2023-08-20T15:41:52;28.90;59.50
4406;DHT22;2216;53.806;11.598;2023-08-20T15:44:18;29.10;59.80
4406;DHT22;2216;53.806;11.598;2023-08-20T15:46:44;28.80;59.80
4406;DHT22;2216;53.806;11.598;2023-08-20T15:49:09;28.70;59.60
4406;DHT22;2216;53.806;11.598;2023-08-20T15:51:35;28.70;59.40
4406;DHT22;2216;53.806;11.598;2023-08-20T15:54:04;28.60;59.20
4406;DHT22;2216;53.806;11.598;2023-08-20T15:56:29;28.50;59.20